createdAt,value
2019-03-26T00:05:03.840Z,97.04
2019-03-26T00:06:03.849Z,96.60
2019-03-26T00:07:03.849Z,96.50
2019-03-26T00:08:03.841Z,97.42
2019-03-26T00:09:03.828Z,97.33
2019-03-26T00:10:03.840Z,98.20
2019-03-26T00:11:03.818Z,97.91
2019-03-26T00:12:03.862Z,98.10
2019-03-26T00:13:03.829Z,98.20
2019-03-26T00:14:03.819Z,97.42
2019-03-26T00:15:03.788Z,97.72
2019-03-26T00:16:03.781Z,97.81
2019-03-26T00:17:03.788Z,97.52
2019-03-26T00:18:03.765Z,97.23
2019-03-26T00:19:03.774Z,97.04
2019-03-26T00:20:03.778Z,96.94
2019-03-26T00:21:03.779Z,97.04
2019-03-26T00:22:03.770Z,96.07
2019-03-26T00:23:03.757Z,95.87
2019-03-26T00:24:03.737Z,95.78
2019-03-26T00:25:03.749Z,95.78
2019-03-26T00:26:03.739Z,95.49
2019-03-26T00:27:03.724Z,96.07
2019-03-26T00:28:03.714Z,96.26
2019-03-26T00:29:03.717Z,96.65
2019-03-26T00:30:03.732Z,97.04
2019-03-26T00:31:03.698Z,96.75
2019-03-26T00:32:03.709Z,97.04
2019-03-26T00:33:03.703Z,95.97
2019-03-26T00:34:03.697Z,96.46
2019-03-26T00:35:03.691Z,96.55
2019-03-26T00:36:03.677Z,96.84
2019-03-26T00:37:03.690Z,97.81
2019-03-26T00:38:03.681Z,97.42
2019-03-26T00:39:03.672Z,97.81
2019-03-26T00:40:03.654Z,97.23
2019-03-26T00:41:03.652Z,97.52
2019-03-26T00:42:03.636Z,97.13
2019-03-26T00:43:03.696Z,97.42
2019-03-26T00:44:03.640Z,96.46
2019-03-26T00:45:03.620Z,95.29
2019-03-26T00:46:03.611Z,95.10
2019-03-26T00:47:03.613Z,94.33
2019-03-26T00:48:03.600Z,94.23
2019-03-26T00:49:03.615Z,94.04
2019-03-26T00:50:03.595Z,93.26
2019-03-26T00:51:03.599Z,92.68
2019-03-26T00:52:03.585Z,92.68
2019-03-26T00:53:03.582Z,92.49
2019-03-26T00:54:03.549Z,93.75
2019-03-26T00:55:03.579Z,94.23
2019-03-26T00:56:03.557Z,95.68
2019-03-26T00:57:03.547Z,96.26
2019-03-26T00:58:03.534Z,97.33
2019-03-26T00:59:03.544Z,98.10
2019-03-26T01:00:03.739Z,98.39
2019-03-26T01:01:03.579Z,98.25
2019-03-26T01:02:03.514Z,97.28
2019-03-26T01:03:03.516Z,97.96
2019-03-26T01:04:03.518Z,97.96
2019-03-26T01:05:03.484Z,97.57
2019-03-26T01:06:03.509Z,97.28
2019-03-26T01:07:03.510Z,97.86
2019-03-26T01:08:03.488Z,96.70
2019-03-26T01:09:03.476Z,96.02
2019-03-26T01:10:03.491Z,96.12
2019-03-26T01:11:03.487Z,95.54
2019-03-26T01:12:03.463Z,96.22
2019-03-26T01:13:03.447Z,96.02
2019-03-26T01:14:03.438Z,96.22
2019-03-26T01:15:03.441Z,96.60
2019-03-26T01:16:03.447Z,96.89
2019-03-26T01:17:03.444Z,97.28
2019-03-26T01:18:03.451Z,97.09
2019-03-26T01:19:03.400Z,97.42
2019-03-26T01:20:03.408Z,96.60
2019-03-26T01:21:03.424Z,97.28
2019-03-26T01:22:03.393Z,97.38
2019-03-26T01:23:03.476Z,97.28
2019-03-26T01:24:03.380Z,97.38
2019-03-26T01:25:03.382Z,98.05
2019-03-26T01:26:03.400Z,98.63
2019-03-26T01:27:03.390Z,98.54
2019-03-26T01:28:03.349Z,97.57
2019-03-26T01:29:03.363Z,97.38
2019-03-26T01:30:03.367Z,97.28
2019-03-26T01:31:03.351Z,94.67
2019-03-26T01:32:03.349Z,93.90
2019-03-26T01:33:03.349Z,94.86
2019-03-26T01:34:03.314Z,96.80
2019-03-26T01:35:03.307Z,97.28
2019-03-26T01:36:03.315Z,98.15
2019-03-26T01:37:03.308Z,97.67
2019-03-26T01:38:03.312Z,98.44
2019-03-26T01:39:03.295Z,97.28
2019-03-26T01:40:03.278Z,98.00
2019-03-26T01:41:03.281Z,98.15
2019-03-26T01:42:03.277Z,97.62
2019-03-26T01:43:03.250Z,97.52
2019-03-26T01:44:03.266Z,97.52
2019-03-26T01:45:03.250Z,97.04
2019-03-26T01:46:03.257Z,97.33
2019-03-26T01:47:03.241Z,97.33
2019-03-26T01:48:03.231Z,96.84
2019-03-26T01:49:03.228Z,96.46
2019-03-26T01:50:03.218Z,96.07
2019-03-26T01:51:03.231Z,96.75
2019-03-26T01:52:03.226Z,96.65
2019-03-26T01:53:03.201Z,96.75
2019-03-26T01:54:03.213Z,96.94
2019-03-26T01:55:03.190Z,96.56
2019-03-26T01:56:03.189Z,97.33
2019-03-26T01:57:03.188Z,97.23
2019-03-26T01:58:03.225Z,96.84
2019-03-26T01:59:03.181Z,96.65
2019-03-26T02:00:03.156Z,96.84
2019-03-26T02:01:03.162Z,96.84
2019-03-26T02:02:03.142Z,97.23
2019-03-26T02:03:03.157Z,97.91
2019-03-26T02:04:03.151Z,97.81
2019-03-26T02:05:03.126Z,97.28
2019-03-26T02:06:03.134Z,97.91
2019-03-26T02:07:03.111Z,98.00
2019-03-26T02:08:03.120Z,97.33
2019-03-26T02:09:03.106Z,97.33
2019-03-26T02:10:03.098Z,97.77
2019-03-26T02:11:03.110Z,97.86
2019-03-26T02:12:03.075Z,98.63
2019-03-26T02:13:03.100Z,99.02
2019-03-26T02:14:03.086Z,99.74
2019-03-26T02:15:03.092Z,99.89
2019-03-26T02:16:03.052Z,99.99
2019-03-26T02:17:03.045Z,99.99
2019-03-26T02:18:03.041Z,99.99
2019-03-26T02:19:03.044Z,99.99
2019-03-26T02:20:03.039Z,99.99
2019-03-26T02:21:03.020Z,99.99
2019-03-26T02:22:03.030Z,99.99
2019-03-26T02:23:03.010Z,99.99
2019-03-26T02:24:03.024Z,99.99
2019-03-26T02:25:03.009Z,99.99
2019-03-26T02:26:03.004Z,99.99
2019-03-26T02:27:03.001Z,99.99
2019-03-26T02:28:02.994Z,99.99
2019-03-26T02:29:02.967Z,99.99
2019-03-26T02:30:02.970Z,99.99
2019-03-26T02:31:02.947Z,99.99
2019-03-26T02:32:02.980Z,99.99
2019-03-26T02:33:03.065Z,99.99
2019-03-26T02:34:02.951Z,99.99
2019-03-26T02:35:16.920Z,99.99
2019-03-26T02:36:02.924Z,99.99
2019-03-26T02:37:02.928Z,99.99
2019-03-26T02:38:02.906Z,99.99
2019-03-26T02:39:02.923Z,99.99
2019-03-26T02:40:02.903Z,99.99
2019-03-26T02:41:02.879Z,99.99
2019-03-26T02:42:02.899Z,99.99
2019-03-26T02:43:02.894Z,99.99
2019-03-26T02:44:02.895Z,99.99
2019-03-26T02:45:02.859Z,99.99
2019-03-26T02:46:02.877Z,99.99
2019-03-26T02:47:02.897Z,99.99
2019-03-26T02:48:02.836Z,99.99
2019-03-26T02:49:02.888Z,99.99
2019-03-26T02:50:02.854Z,99.99
2019-03-26T02:51:02.848Z,99.99
2019-03-26T02:52:02.836Z,99.99
2019-03-26T02:53:02.820Z,99.99
2019-03-26T02:54:02.814Z,99.99
2019-03-26T02:55:02.788Z,99.99
2019-03-26T02:56:02.787Z,99.99
2019-03-26T02:57:02.794Z,99.99
2019-03-26T02:58:02.764Z,99.99
2019-03-26T02:59:02.791Z,99.99
2019-03-26T03:00:02.802Z,99.99
2019-03-26T03:01:02.762Z,99.99
2019-03-26T03:02:02.753Z,99.99
2019-03-26T03:03:02.754Z,99.99
2019-03-26T03:04:02.728Z,99.99
2019-03-26T03:05:02.725Z,99.99
2019-03-26T03:06:02.719Z,99.99
2019-03-26T03:07:02.703Z,99.99
2019-03-26T03:08:02.689Z,99.99
2019-03-26T03:09:02.700Z,99.99
2019-03-26T03:10:02.707Z,99.99
2019-03-26T03:11:02.668Z,99.99
2019-03-26T03:12:02.721Z,99.99
2019-03-26T03:13:02.721Z,99.99
2019-03-26T03:14:02.669Z,99.99
2019-03-26T03:15:02.644Z,99.99
2019-03-26T03:16:02.656Z,99.99
2019-03-26T03:17:02.655Z,99.99
2019-03-26T03:18:02.648Z,99.99
2019-03-26T03:19:02.637Z,99.99
2019-03-26T03:20:02.638Z,99.99
2019-03-26T03:21:02.637Z,99.99
2019-03-26T03:22:02.597Z,99.99
2019-03-26T03:23:02.616Z,99.99
2019-03-26T03:24:02.610Z,99.99
2019-03-26T03:25:02.583Z,99.99
2019-03-26T03:26:02.609Z,99.99
2019-03-26T03:27:02.587Z,99.99
2019-03-26T03:28:02.586Z,99.99
2019-03-26T03:29:02.559Z,99.99
2019-03-26T03:30:02.565Z,99.99
2019-03-26T03:31:02.536Z,99.99
2019-03-26T03:32:02.539Z,99.99
2019-03-26T03:33:02.542Z,99.99
2019-03-26T03:34:02.533Z,99.99
2019-03-26T03:35:02.529Z,99.99
2019-03-26T03:36:02.508Z,99.99
2019-03-26T03:37:02.492Z,99.99
2019-03-26T03:38:02.509Z,99.99
2019-03-26T03:39:02.486Z,99.99
2019-03-26T03:40:02.488Z,99.99
2019-03-26T03:41:02.499Z,99.99
2019-03-26T03:42:02.505Z,99.99
2019-03-26T03:43:02.439Z,99.99
2019-03-26T03:44:02.461Z,99.99
2019-03-26T03:45:02.450Z,99.88
2019-03-26T03:46:02.456Z,97.86
2019-03-26T03:47:02.447Z,98.05
2019-03-26T03:48:02.441Z,97.77
2019-03-26T03:49:02.405Z,97.09
2019-03-26T03:50:02.428Z,96.03
2019-03-26T03:51:02.598Z,95.35
2019-03-26T03:52:02.403Z,94.10
2019-03-26T03:53:02.402Z,94.10
2019-03-26T03:54:02.391Z,93.52
2019-03-26T03:55:02.428Z,92.55
2019-03-26T03:56:02.356Z,92.65
2019-03-26T03:57:02.364Z,92.46
2019-03-26T03:58:02.407Z,92.16
2019-03-26T03:59:02.357Z,92.07
2019-03-26T04:00:02.343Z,92.79
2019-03-26T04:01:02.325Z,93.32
2019-03-26T04:02:02.337Z,93.71
2019-03-26T04:03:02.326Z,91.88
2019-03-26T04:04:02.326Z,92.16
2019-03-26T04:05:02.318Z,91.59
2019-03-26T04:06:09.548Z,94.92
2019-03-26T04:07:02.271Z,94.20
2019-03-26T04:08:02.296Z,94.77
2019-03-26T04:09:02.281Z,94.68
2019-03-26T04:10:02.312Z,95.45
2019-03-26T04:11:02.308Z,92.94
2019-03-26T04:12:02.328Z,92.74
2019-03-26T04:13:02.255Z,91.59
2019-03-26T04:14:02.243Z,91.11
2019-03-26T04:15:02.256Z,91.59
2019-03-26T04:16:02.260Z,91.88
2019-03-26T04:17:02.222Z,92.55
2019-03-26T04:18:02.201Z,93.80
2019-03-26T04:19:02.206Z,94.00
2019-03-26T04:20:02.200Z,94.87
2019-03-26T04:21:02.183Z,95.93
2019-03-26T04:22:02.183Z,96.41
2019-03-26T04:23:02.186Z,96.31
2019-03-26T04:24:02.222Z,97.38
2019-03-26T04:25:02.193Z,98.44
2019-03-26T04:26:02.196Z,98.83
2019-03-26T04:27:02.159Z,99.11
2019-03-26T04:28:02.153Z,99.79
2019-03-26T04:29:02.179Z,99.79
2019-03-26T04:30:02.116Z,99.99
2019-03-26T04:31:02.118Z,99.99
2019-03-26T04:32:02.132Z,99.99
2019-03-26T04:33:02.093Z,99.99
2019-03-26T04:34:02.097Z,99.99
2019-03-26T04:35:02.101Z,99.99
2019-03-26T04:36:02.073Z,99.99
2019-03-26T04:37:02.075Z,99.99
2019-03-26T04:38:02.078Z,99.99
2019-03-26T04:39:02.072Z,99.99
2019-03-26T04:40:02.099Z,99.99
2019-03-26T04:41:02.043Z,99.99
2019-03-26T04:42:02.080Z,99.99
2019-03-26T04:43:02.031Z,99.99
2019-03-26T04:44:02.044Z,99.99
2019-03-26T04:45:02.037Z,99.99
2019-03-26T04:46:02.061Z,99.99
2019-03-26T04:47:02.000Z,99.99
2019-03-26T04:48:02.000Z,99.99
2019-03-26T04:49:02.001Z,99.99
2019-03-26T04:50:01.981Z,99.99
2019-03-26T04:51:03.387Z,99.99
2019-03-26T04:52:01.971Z,99.99
2019-03-26T04:53:27.652Z,99.99
2019-03-26T04:54:03.380Z,99.99
2019-03-26T04:55:03.353Z,99.99
2019-03-26T04:56:01.958Z,99.99
2019-03-26T04:57:04.973Z,99.99
2019-03-26T04:58:27.610Z,99.99
2019-03-26T04:59:01.907Z,99.99
2019-03-26T05:00:03.320Z,99.99
2019-03-26T05:01:01.926Z,99.99
2019-03-26T05:02:08.158Z,99.99
2019-03-26T05:03:03.105Z,99.99
2019-03-26T05:04:01.871Z,99.99
2019-03-26T05:05:01.887Z,99.99
2019-03-26T05:06:01.867Z,99.99
2019-03-26T05:07:01.851Z,99.99
2019-03-26T05:08:01.857Z,99.99
2019-03-26T05:09:01.846Z,99.99
2019-03-26T05:10:01.846Z,99.99
2019-03-26T05:11:01.839Z,99.99
2019-03-26T05:12:01.798Z,99.99
2019-03-26T05:13:01.811Z,99.99
2019-03-26T05:14:01.788Z,99.99
2019-03-26T05:15:01.782Z,99.99
2019-03-26T05:16:01.790Z,99.99
2019-03-26T05:17:01.786Z,99.99
2019-03-26T05:18:01.779Z,99.99
2019-03-26T05:19:01.770Z,99.99
2019-03-26T05:20:01.763Z,99.99
2019-03-26T05:21:01.751Z,99.99
2019-03-26T05:22:01.729Z,99.99
2019-03-26T05:23:01.788Z,99.99
2019-03-26T05:24:01.734Z,99.99
2019-03-26T05:25:01.742Z,99.99
2019-03-26T05:26:01.721Z,99.99
2019-03-26T05:27:01.708Z,99.99
2019-03-26T05:28:01.704Z,99.99
2019-03-26T05:29:01.734Z,99.99
2019-03-26T05:30:01.687Z,99.99
2019-03-26T05:31:01.720Z,99.99
2019-03-26T05:32:01.702Z,99.99
2019-03-26T05:33:01.653Z,99.99
2019-03-26T05:34:01.670Z,99.99
2019-03-26T05:35:01.642Z,99.99
2019-03-26T05:36:01.646Z,99.99
2019-03-26T05:37:01.629Z,99.99
2019-03-26T05:38:01.628Z,99.99
2019-03-26T05:39:01.620Z,99.99
2019-03-26T05:40:01.620Z,99.99
2019-03-26T05:41:01.592Z,99.99
2019-03-26T05:42:01.605Z,99.99
2019-03-26T05:43:01.572Z,99.99
2019-03-26T05:44:01.624Z,99.99
2019-03-26T05:45:01.566Z,99.99
2019-03-26T05:46:01.557Z,99.99
2019-03-26T05:47:01.794Z,99.99
2019-03-26T05:48:01.592Z,99.99
2019-03-26T05:49:01.529Z,99.99
2019-03-26T05:50:01.535Z,99.99
2019-03-26T05:51:01.509Z,99.99
2019-03-26T05:52:01.499Z,99.99
2019-03-26T05:53:01.513Z,99.99
2019-03-26T05:54:01.546Z,99.99
2019-03-26T05:55:01.498Z,99.99
2019-03-26T05:56:01.506Z,99.99
2019-03-26T05:57:01.490Z,99.99
2019-03-26T05:58:01.488Z,99.99
2019-03-26T05:59:01.473Z,99.99
2019-03-26T06:00:01.467Z,99.99
2019-03-26T06:01:01.452Z,99.99
2019-03-26T06:02:13.419Z,99.99
2019-03-26T06:03:01.442Z,99.99
2019-03-26T06:04:01.512Z,99.99
2019-03-26T06:05:01.401Z,99.99
2019-03-26T06:06:01.418Z,99.99
2019-03-26T06:07:05.141Z,99.99
2019-03-26T06:08:01.390Z,99.99
2019-03-26T06:09:01.395Z,99.99
2019-03-26T06:10:01.424Z,99.99
2019-03-26T06:11:01.379Z,99.99
2019-03-26T06:12:01.373Z,99.99
2019-03-26T06:13:01.374Z,99.99
2019-03-26T06:14:01.409Z,99.99
2019-03-26T06:15:01.316Z,99.99
2019-03-26T06:16:01.322Z,99.99
2019-03-26T06:17:01.322Z,99.99
2019-03-26T06:18:01.322Z,99.99
2019-03-26T06:19:01.305Z,99.99
2019-03-26T06:20:06.375Z,99.99
2019-03-26T06:21:01.283Z,99.99
2019-03-26T06:22:01.266Z,99.99
2019-03-26T06:23:01.285Z,99.99
2019-03-26T06:24:01.262Z,99.99
2019-03-26T06:25:01.272Z,99.99
2019-03-26T06:26:01.239Z,99.99
2019-03-26T06:27:01.261Z,99.99
2019-03-26T06:28:01.246Z,99.99
2019-03-26T06:29:01.421Z,99.99
2019-03-26T06:30:01.214Z,99.99
2019-03-26T06:31:01.203Z,99.99
2019-03-26T06:32:01.196Z,99.99
2019-03-26T06:33:01.204Z,99.99
2019-03-26T06:34:01.179Z,99.99
2019-03-26T06:35:01.164Z,99.99
2019-03-26T06:36:01.179Z,99.99
2019-03-26T06:37:01.156Z,99.99
2019-03-26T06:38:01.144Z,99.99
2019-03-26T06:39:01.149Z,99.99
2019-03-26T06:40:01.151Z,99.99
2019-03-26T06:41:01.129Z,99.99
2019-03-26T06:42:01.110Z,99.99
2019-03-26T06:43:01.110Z,99.99
2019-03-26T06:44:01.098Z,99.99
2019-03-26T06:45:01.101Z,99.99
2019-03-26T06:46:01.124Z,99.99
2019-03-26T06:47:01.080Z,99.99
2019-03-26T06:48:03.981Z,99.99
2019-03-26T06:49:01.073Z,99.99
2019-03-26T06:50:01.080Z,99.99
2019-03-26T06:51:01.073Z,99.99
2019-03-26T06:52:01.066Z,99.99
2019-03-26T06:53:01.042Z,99.99
2019-03-26T06:54:01.045Z,99.99
2019-03-26T06:55:01.232Z,99.99
2019-03-26T06:56:01.000Z,99.99
2019-03-26T06:57:01.011Z,99.99
2019-03-26T06:58:01.005Z,99.99
2019-03-26T06:59:00.993Z,99.99
2019-03-26T07:00:00.988Z,99.99
2019-03-26T07:01:00.963Z,99.99
2019-03-26T07:02:00.971Z,99.99
2019-03-26T07:03:00.978Z,99.99
2019-03-26T07:04:00.951Z,99.99
2019-03-26T07:05:00.926Z,99.99
2019-03-26T07:06:00.935Z,99.99
2019-03-26T07:07:00.923Z,99.99
2019-03-26T07:08:00.901Z,99.99
2019-03-26T07:09:00.896Z,99.99
2019-03-26T07:10:00.882Z,99.99
2019-03-26T07:11:00.896Z,99.99
2019-03-26T07:12:00.926Z,99.99
2019-03-26T07:13:00.897Z,99.99
2019-03-26T07:14:00.873Z,99.99
2019-03-26T07:15:00.846Z,99.99
2019-03-26T07:16:00.851Z,99.99
2019-03-26T07:17:00.855Z,99.99
2019-03-26T07:18:00.836Z,99.99
2019-03-26T07:19:00.823Z,99.99
2019-03-26T07:20:00.823Z,99.99
2019-03-26T07:21:00.804Z,99.99
2019-03-26T07:22:00.817Z,99.99
2019-03-26T07:23:00.792Z,99.99
2019-03-26T07:24:00.768Z,99.99
2019-03-26T07:25:00.816Z,99.99
2019-03-26T07:26:00.774Z,99.99
2019-03-26T07:27:00.765Z,99.99
2019-03-26T07:28:00.748Z,99.99
2019-03-26T07:29:00.742Z,99.99
2019-03-26T07:30:00.719Z,99.99
2019-03-26T07:31:00.771Z,99.99
2019-03-26T07:32:00.719Z,99.99
2019-03-26T07:33:00.722Z,99.99
2019-03-26T07:34:00.700Z,99.99
2019-03-26T07:35:00.734Z,99.99
2019-03-26T07:36:00.691Z,99.99
2019-03-26T07:37:00.683Z,99.99
2019-03-26T07:38:00.665Z,99.99
2019-03-26T07:39:00.667Z,99.99
2019-03-26T07:40:00.658Z,99.99
2019-03-26T07:41:00.635Z,99.99
2019-03-26T07:42:00.643Z,99.99
2019-03-26T07:43:00.612Z,99.99
2019-03-26T07:44:00.641Z,99.99
2019-03-26T07:45:00.630Z,99.99
2019-03-26T07:46:00.614Z,99.99
2019-03-26T07:47:00.602Z,99.99
2019-03-26T07:48:00.804Z,99.99
2019-03-26T07:49:00.591Z,99.99
2019-03-26T07:50:00.585Z,99.99
2019-03-26T07:51:00.546Z,99.99
2019-03-26T07:52:00.555Z,99.99
2019-03-26T07:53:00.554Z,99.99
2019-03-26T07:54:00.535Z,99.99
2019-03-26T07:55:00.536Z,99.99
2019-03-26T07:56:00.527Z,99.99
2019-03-26T07:57:00.510Z,99.99
2019-03-26T07:58:00.515Z,99.99
2019-03-26T07:59:00.502Z,99.99
2019-03-26T08:00:00.474Z,99.99
2019-03-26T08:01:00.466Z,99.99
2019-03-26T08:02:00.483Z,99.99
2019-03-26T08:03:00.473Z,99.99
2019-03-26T08:04:00.461Z,99.99
2019-03-26T08:05:00.477Z,99.99
2019-03-26T08:06:00.447Z,99.99
2019-03-26T08:07:00.445Z,99.99
2019-03-26T08:08:00.409Z,99.99
2019-03-26T08:09:00.409Z,99.99
2019-03-26T08:10:00.613Z,99.99
2019-03-26T08:11:00.413Z,99.99
2019-03-26T08:12:00.387Z,99.99
2019-03-26T08:13:00.437Z,99.99
2019-03-26T08:14:00.370Z,99.99
2019-03-26T08:15:00.417Z,99.99
2019-03-26T08:16:00.442Z,99.99
2019-03-26T08:17:00.348Z,99.99
2019-03-26T08:18:00.347Z,99.99
2019-03-26T08:19:00.346Z,99.99
2019-03-26T08:20:00.368Z,99.99
2019-03-26T08:21:00.325Z,99.99
2019-03-26T08:22:00.301Z,99.99
2019-03-26T08:23:00.310Z,99.99
2019-03-26T08:24:00.281Z,99.99
2019-03-26T08:25:00.361Z,99.99
2019-03-26T08:26:00.278Z,99.99
2019-03-26T08:27:00.278Z,99.99
2019-03-26T08:28:00.257Z,99.99
2019-03-26T08:29:01.085Z,99.99
2019-03-26T08:30:00.356Z,99.99
2019-03-26T08:31:00.274Z,99.99
2019-03-26T08:32:00.229Z,99.99
2019-03-26T08:33:00.212Z,99.99
2019-03-26T08:34:00.213Z,99.99
2019-03-26T08:35:00.373Z,99.99
2019-03-26T08:36:00.191Z,99.99
2019-03-26T08:37:00.175Z,99.99
2019-03-26T08:38:11.732Z,99.99
2019-03-26T08:39:00.165Z,99.99
2019-03-26T08:40:00.375Z,99.99
2019-03-26T08:41:00.136Z,99.99
2019-03-26T08:42:00.140Z,99.99
2019-03-26T08:43:00.129Z,99.99
2019-03-26T08:44:00.111Z,99.99
2019-03-26T08:45:00.346Z,99.99
2019-03-26T08:46:00.111Z,99.99
2019-03-26T08:47:00.103Z,99.99
2019-03-26T08:48:00.104Z,99.99
2019-03-26T08:49:00.097Z,99.99
2019-03-26T08:50:00.097Z,99.99
2019-03-26T08:51:01.336Z,99.99
2019-03-26T08:52:00.077Z,99.99
2019-03-26T08:53:00.051Z,99.99
2019-03-26T08:54:00.065Z,99.99
2019-03-26T08:55:00.324Z,99.99
2019-03-26T08:56:00.032Z,99.99
2019-03-26T08:57:00.211Z,99.99
2019-03-26T08:58:00.243Z,99.99
2019-03-26T08:58:59.999Z,99.99
2019-03-26T09:00:00.003Z,99.99
2019-03-26T09:00:59.995Z,99.99
2019-03-26T09:01:59.981Z,99.99
2019-03-26T09:03:00.016Z,99.99
2019-03-26T09:04:00.127Z,99.99
2019-03-26T09:04:59.940Z,99.99
2019-03-26T09:05:59.980Z,99.99
2019-03-26T09:06:59.936Z,99.99
2019-03-26T09:07:59.924Z,99.99
2019-03-26T09:08:59.921Z,99.99
2019-03-26T09:09:59.910Z,99.99
2019-03-26T09:10:59.886Z,99.99
2019-03-26T09:11:59.941Z,99.99
2019-03-26T09:12:59.883Z,99.99
2019-03-26T09:13:59.883Z,99.99
2019-03-26T09:14:59.908Z,99.99
2019-03-26T09:15:59.848Z,99.99
2019-03-26T09:16:59.865Z,99.99
2019-03-26T09:17:59.843Z,99.99
2019-03-26T09:18:59.827Z,99.99
2019-03-26T09:19:59.810Z,99.99
2019-03-26T09:20:59.815Z,99.99
2019-03-26T09:21:59.794Z,99.99
2019-03-26T09:22:59.839Z,99.99
2019-03-26T09:23:59.797Z,99.99
2019-03-26T09:24:59.783Z,99.99
2019-03-26T09:25:59.765Z,99.99
2019-03-26T09:26:59.753Z,99.99
2019-03-26T09:27:59.764Z,99.99
2019-03-26T09:28:59.746Z,99.99
2019-03-26T09:29:59.756Z,99.99
2019-03-26T09:30:59.714Z,99.99
2019-03-26T09:31:59.744Z,99.99
2019-03-26T09:32:59.705Z,99.99
2019-03-26T09:33:59.713Z,99.99
2019-03-26T09:34:59.683Z,99.99
2019-03-26T09:35:59.692Z,99.99
2019-03-26T09:36:59.676Z,99.99
2019-03-26T09:37:59.686Z,99.99
2019-03-26T09:38:59.643Z,99.99
2019-03-26T09:39:59.632Z,99.99
2019-03-26T09:40:59.684Z,99.99
2019-03-26T09:41:59.636Z,99.99
2019-03-26T09:42:59.610Z,99.99
2019-03-26T09:43:59.602Z,99.99
2019-03-26T09:44:59.612Z,99.99
2019-03-26T09:45:59.593Z,99.99
2019-03-26T09:46:59.569Z,99.99
2019-03-26T09:47:59.571Z,99.99
2019-03-26T09:48:59.559Z,99.99
2019-03-26T09:49:59.563Z,99.99
2019-03-26T09:50:59.588Z,99.99
2019-03-26T09:51:59.545Z,99.99
2019-03-26T09:52:59.543Z,99.99
2019-03-26T09:53:59.570Z,99.99
2019-03-26T09:54:59.520Z,99.99
2019-03-26T09:55:59.515Z,99.99
2019-03-26T09:56:59.487Z,99.99
2019-03-26T09:57:59.476Z,99.99
2019-03-26T09:58:59.488Z,99.99
2019-03-26T09:59:59.473Z,99.99
2019-03-26T10:00:59.443Z,99.99
2019-03-26T10:01:59.471Z,99.99
2019-03-26T10:02:59.454Z,99.99
2019-03-26T10:03:59.425Z,99.99
2019-03-26T10:04:59.419Z,99.99
2019-03-26T10:05:59.421Z,99.99
2019-03-26T10:06:59.405Z,99.99
2019-03-26T10:07:59.401Z,99.99
2019-03-26T10:08:59.393Z,99.99
2019-03-26T10:09:59.421Z,99.99
2019-03-26T10:10:59.359Z,99.99
2019-03-26T10:11:59.357Z,99.99
2019-03-26T10:12:59.367Z,99.99
2019-03-26T10:13:59.357Z,99.99
2019-03-26T10:14:59.341Z,99.99
2019-03-26T10:15:59.319Z,99.99
2019-03-26T10:16:59.321Z,99.99
2019-03-26T10:17:59.344Z,99.99
2019-03-26T10:18:59.308Z,99.99
2019-03-26T10:19:59.305Z,99.99
2019-03-26T10:20:59.276Z,99.99
2019-03-26T10:21:59.267Z,99.99
2019-03-26T10:22:59.253Z,99.99
2019-03-26T10:23:59.272Z,99.99
2019-03-26T10:24:59.263Z,99.99
2019-03-26T10:25:59.245Z,99.99
2019-03-26T10:26:59.224Z,99.99
2019-03-26T10:27:59.218Z,99.99
2019-03-26T10:28:59.250Z,99.99
2019-03-26T10:29:59.200Z,99.99
2019-03-26T10:30:59.203Z,99.99
2019-03-26T10:31:59.183Z,99.99
2019-03-26T10:32:59.169Z,99.99
2019-03-26T10:33:59.184Z,99.99
2019-03-26T10:34:59.162Z,99.99
2019-03-26T10:35:59.163Z,99.99
2019-03-26T10:36:59.170Z,99.99
2019-03-26T10:37:59.123Z,99.99
2019-03-26T10:39:59.127Z,99.99
2019-03-26T10:40:59.107Z,99.99
2019-03-26T10:41:59.109Z,99.99
2019-03-26T10:42:59.091Z,99.99
2019-03-26T10:43:59.087Z,99.99
2019-03-26T10:44:59.084Z,99.99
2019-03-26T10:45:59.075Z,99.99
2019-03-26T10:46:59.063Z,99.99
2019-03-26T10:47:59.048Z,99.99
2019-03-26T10:48:59.030Z,99.99
2019-03-26T10:49:59.057Z,99.99
2019-03-26T10:50:59.067Z,99.99
2019-03-26T10:51:59.015Z,99.99
2019-03-26T10:52:59.006Z,99.99
2019-03-26T10:53:58.982Z,99.99
2019-03-26T10:54:58.983Z,99.99
2019-03-26T10:55:58.989Z,99.99
2019-03-26T10:56:58.969Z,99.99
2019-03-26T10:57:58.973Z,99.99
2019-03-26T10:58:58.963Z,99.99
2019-03-26T10:59:58.955Z,99.99
2019-03-26T11:00:58.946Z,99.99
2019-03-26T11:02:00.044Z,99.99
2019-03-26T11:02:58.933Z,99.99
2019-03-26T11:03:58.911Z,99.99
2019-03-26T11:04:58.919Z,99.99
2019-03-26T11:05:58.899Z,99.99
2019-03-26T11:06:58.907Z,99.99
2019-03-26T11:07:58.877Z,99.99
2019-03-26T11:08:58.880Z,99.99
2019-03-26T11:09:58.870Z,99.99
2019-03-26T11:10:58.861Z,99.99
2019-03-26T11:11:58.852Z,99.99
2019-03-26T11:12:58.843Z,99.99
2019-03-26T11:13:58.976Z,99.99
2019-03-26T11:14:58.817Z,99.99
2019-03-26T11:15:58.808Z,99.99
2019-03-26T11:16:58.815Z,99.99
2019-03-26T11:17:58.786Z,99.99
2019-03-26T11:18:58.789Z,99.99
2019-03-26T11:19:58.784Z,99.99
2019-03-26T11:21:02.847Z,99.99
2019-03-26T11:21:58.757Z,99.99
2019-03-26T11:22:58.745Z,99.99
2019-03-26T11:23:58.723Z,99.99
2019-03-26T11:24:58.736Z,99.99
2019-03-26T11:25:58.706Z,99.99
2019-03-26T11:26:58.717Z,99.99
2019-03-26T11:27:58.707Z,99.99
2019-03-26T11:28:58.715Z,99.99
2019-03-26T11:29:58.712Z,99.99
2019-03-26T11:30:58.697Z,99.99
2019-03-26T11:31:58.680Z,99.99
2019-03-26T11:32:58.671Z,99.99
2019-03-26T11:33:58.657Z,99.99
2019-03-26T11:34:58.670Z,99.99
2019-03-26T11:35:58.690Z,99.99
2019-03-26T11:36:58.680Z,99.99
2019-03-26T11:37:58.633Z,99.99
2019-03-26T11:38:58.623Z,99.99
2019-03-26T11:39:58.615Z,99.99
2019-03-26T11:40:58.612Z,99.99
2019-03-26T11:41:58.598Z,99.99
2019-03-26T11:42:58.593Z,99.99
2019-03-26T11:43:58.618Z,99.99
2019-03-26T11:44:59.547Z,99.99
2019-03-26T11:45:58.562Z,99.99
2019-03-26T11:46:58.565Z,99.99
2019-03-26T11:47:58.551Z,99.99
2019-03-26T11:48:58.544Z,99.99
2019-03-26T11:49:58.521Z,99.99
2019-03-26T11:50:58.533Z,99.99
2019-03-26T11:51:58.504Z,99.99
2019-03-26T11:52:58.518Z,99.99
2019-03-26T11:53:58.495Z,99.99
2019-03-26T11:54:58.503Z,99.99
2019-03-26T11:55:58.460Z,99.99
2019-03-26T11:56:58.516Z,99.99
2019-03-26T11:57:58.466Z,99.99
2019-03-26T11:58:58.500Z,99.99
2019-03-26T11:59:58.464Z,99.99
2019-03-26T12:00:58.444Z,99.99
2019-03-26T12:01:58.450Z,99.99
2019-03-26T12:02:58.441Z,99.99
2019-03-26T12:03:58.421Z,99.99
2019-03-26T12:04:58.414Z,99.99
2019-03-26T12:05:58.399Z,99.99
2019-03-26T12:06:58.377Z,99.99
2019-03-26T12:07:58.376Z,99.99
2019-03-26T12:08:58.375Z,99.99
2019-03-26T12:09:58.358Z,99.99
2019-03-26T12:10:58.381Z,99.99
2019-03-26T12:11:58.352Z,99.99
2019-03-26T12:12:58.393Z,99.99
2019-03-26T12:13:58.352Z,99.99
2019-03-26T12:14:58.325Z,99.99
2019-03-26T12:15:58.337Z,99.99
2019-03-26T12:16:58.325Z,99.99
2019-03-26T12:17:58.302Z,99.99
2019-03-26T12:18:58.303Z,99.99
2019-03-26T12:19:58.290Z,99.99
2019-03-26T12:20:58.277Z,99.99
2019-03-26T12:21:58.280Z,99.99
2019-03-26T12:22:58.277Z,99.99
2019-03-26T12:23:58.279Z,99.99
2019-03-26T12:24:58.275Z,99.99
2019-03-26T12:25:58.266Z,99.99
2019-03-26T12:26:58.256Z,99.99
2019-03-26T12:27:58.250Z,99.99
2019-03-26T12:28:58.244Z,99.99
2019-03-26T12:29:58.243Z,99.99
2019-03-26T12:30:58.237Z,99.99
2019-03-26T12:31:58.217Z,99.99
2019-03-26T12:32:58.266Z,99.99
2019-03-26T12:33:58.215Z,99.99
2019-03-26T12:34:58.186Z,99.99
2019-03-26T12:35:58.212Z,99.99
2019-03-26T12:36:58.208Z,99.99
2019-03-26T12:37:58.188Z,99.99
2019-03-26T12:38:58.197Z,99.99
2019-03-26T12:40:00.160Z,99.99
2019-03-26T12:40:58.187Z,99.99
2019-03-26T12:41:58.173Z,99.85
2019-03-26T12:42:58.169Z,99.37
2019-03-26T12:43:58.138Z,99.46
2019-03-26T12:44:58.448Z,99.22
2019-03-26T12:45:58.127Z,99.85
2019-03-26T12:46:58.482Z,99.07
2019-03-26T12:47:58.129Z,97.76
2019-03-26T12:48:58.123Z,96.50
2019-03-26T12:49:58.147Z,96.06
2019-03-26T12:50:58.157Z,94.60
2019-03-26T12:51:58.118Z,93.82
2019-03-26T12:52:58.127Z,93.73
2019-03-26T12:53:58.105Z,93.04
2019-03-26T12:54:58.106Z,92.51
2019-03-26T12:55:58.095Z,92.12
2019-03-26T12:56:58.096Z,92.46
2019-03-26T12:57:58.091Z,91.68